Time;durP1;ratioP1;P1;durP2;ratioP2;P2;SDS_P1;SDS_P2;PMS_P1;PMS_P2;Temp;Humidity;BMP_temperature;BMP_pressure;BME280_temperature;BME280_humidity;BME280_pressure;Samples;Min_cycle;Max_cycle;Signal;HPM_P1;HPM_P2
2024/01/31 00:00:17;;;;;;;11.63;6.85;;;;;;;;;;687427;28;968;-64
2024/01/31 00:00:38;;;;;;;11.48;6.90;;;;;;;;;;687359;28;1473;-63
2024/01/31 00:00:58;;;;;;;10.65;6.63;;;;;;;;;;686597;28;1673;-62
2024/01/31 00:01:19;;;;;;;12.37;7.17;;;;;;;;;;685859;28;4359;-63
2024/01/31 00:01:39;;;;;;;12.10;7.10;;;;;;;;;;687542;28;1023;-63
2024/01/31 00:02:00;;;;;;;12.00;6.80;;;;;;;;;;686765;28;1012;-63
2024/01/31 00:02:22;;;;;;;10.70;6.45;;;;;;;;;;687236;28;1285;-63
2024/01/31 00:02:43;;;;;;;10.70;6.68;;;;;;;;;;687133;28;814;-63
2024/01/31 00:03:03;;;;;;;10.80;6.63;;;;;;;;;;686659;28;2276;-63
2024/01/31 00:03:23;;;;;;;10.97;6.40;;;;;;;;;;687449;28;794;-62
2024/01/31 00:03:44;;;;;;;12.17;6.90;;;;;;;;;;687497;28;1545;-62
2024/01/31 00:04:05;;;;;;;11.77;6.53;;;;;;;;;;686151;28;1510;-63
2024/01/31 00:04:25;;;;;;;11.80;6.93;;;;;;;;;;686731;28;4456;-64
2024/01/31 00:04:45;;;;;;;11.55;6.65;;;;;;;;;;687263;28;798;-64
2024/01/31 00:05:06;;;;;;;12.90;7.07;;;;;;;;;;686488;28;2320;-62
2024/01/31 00:05:27;;;;;;;11.57;6.95;;;;;;;;;;687108;28;877;-63
2024/01/31 00:05:48;;;;;;;11.80;6.75;;;;;;;;;;686275;28;1802;-63
2024/01/31 00:06:10;;;;;;;10.25;6.40;;;;;;;;;;687774;28;870;-63
2024/01/31 00:06:30;;;;;;;10.65;6.45;;;;;;;;;;687340;28;1638;-63
2024/01/31 00:06:51;;;;;;;11.07;6.90;;;;;;;;;;685899;28;1084;-64
2024/01/31 00:07:12;;;;;;;11.90;6.77;;;;;;;;;;686826;28;4393;-62
2024/01/31 00:07:33;;;;;;;11.95;6.68;;;;;;;;;;686416;28;1432;-64
2024/01/31 00:07:54;;;;;;;11.75;6.68;;;;;;;;;;686549;28;2211;-62
2024/01/31 00:08:19;;;;;;;12.65;6.80;;;;;;;;;;687254;28;1024;-63
2024/01/31 00:08:42;;;;;;;11.82;7.13;;;;;;;;;;686491;28;1169;-64
2024/01/31 00:09:04;;;;;;;11.93;6.53;;;;;;;;;;684495;28;4896;-63
2024/01/31 00:09:25;;;;;;;12.40;6.90;;;;;;;;;;687666;28;1093;-65
2024/01/31 00:09:45;;;;;;;11.87;7.10;;;;;;;;;;685227;28;826;-63
2024/01/31 00:10:06;;;;;;;11.05;6.95;;;;;;;;;;686182;28;1896;-63
2024/01/31 00:10:27;;;;;;;11.10;6.72;;;;;;;;;;686897;28;5754;-62
2024/01/31 00:10:47;;;;;;;12.00;6.97;;;;;;;;;;682840;28;2485;-65
2024/01/31 00:11:08;;;;;;;13.07;7.23;;;;;;;;;;683932;28;900;-63
2024/01/31 00:11:29;;;;;;;13.20;7.25;;;;;;;;;;684855;28;1465;-64
2024/01/31 00:11:49;;;;;;;12.13;6.80;;;;;;;;;;685754;28;1744;-65
2024/01/31 00:12:09;;;;;;;11.32;6.60;;;;;;;;;;685863;28;752;-64
2024/01/31 00:12:30;;;;;;;12.77;6.87;;;;;;;;;;687148;28;976;-65
2024/01/31 00:12:50;;;;;;;12.85;7.00;;;;;;;;;;688490;28;2477;-64
2024/01/31 00:13:10;;;;;;;12.53;7.60;;;;;;;;;;689053;28;4389;-62
2024/01/31 00:13:31;;;;;;;12.40;7.53;;;;;;;;;;687645;28;858;-63
2024/01/31 00:13:51;;;;;;;12.52;7.43;;;;;;;;;;686061;28;2379;-65
2024/01/31 00:14:15;;;;;;;12.15;7.05;;;;;;;;;;687086;28;980;-64
2024/01/31 00:14:36;;;;;;;11.52;6.90;;;;;;;;;;687311;28;948;-63
2024/01/31 00:14:56;;;;;;;11.90;7.07;;;;;;;;;;685764;28;2409;-64
2024/01/31 00:15:16;;;;;;;11.38;7.28;;;;;;;;;;686947;28;905;-62
2024/01/31 00:15:37;;;;;;;11.60;7.40;;;;;;;;;;687423;28;870;-62
2024/01/31 00:15:57;;;;;;;11.03;6.77;;;;;;;;;;685982;28;1703;-64
2024/01/31 00:16:18;;;;;;;13.55;7.30;;;;;;;;;;686910;28;4453;-64
2024/01/31 00:16:38;;;;;;;13.90;7.60;;;;;;;;;;687155;28;877;-63
2024/01/31 00:16:59;;;;;;;11.07;7.20;;;;;;;;;;686295;28;1558;-63
2024/01/31 00:17:19;;;;;;;11.15;7.00;;;;;;;;;;686901;28;1303;-62
2024/01/31 00:17:39;;;;;;;11.07;7.37;;;;;;;;;;687371;28;1031;-63
2024/01/31 00:18:00;;;;;;;10.87;7.10;;;;;;;;;;685446;28;1716;-62
2024/01/31 00:18:20;;;;;;;12.07;7.43;;;;;;;;;;684304;28;1621;-62
2024/01/31 00:18:41;;;;;;;11.90;7.53;;;;;;;;;;684812;28;814;-62
2024/01/31 00:19:01;;;;;;;12.03;7.70;;;;;;;;;;683620;28;1742;-63
2024/01/31 00:19:22;;;;;;;11.93;7.43;;;;;;;;;;685919;28;4337;-63
2024/01/31 00:19:42;;;;;;;11.25;7.40;;;;;;;;;;687302;28;1005;-64
2024/01/31 00:20:03;;;;;;;12.30;7.40;;;;;;;;;;686091;28;1933;-63
2024/01/31 00:20:24;;;;;;;13.13;8.00;;;;;;;;;;687327;28;877;-64
2024/01/31 00:20:44;;;;;;;12.20;7.75;;;;;;;;;;687247;28;952;-62
2024/01/31 00:21:04;;;;;;;11.53;7.57;;;;;;;;;;686293;28;2647;-61
2024/01/31 00:21:25;;;;;;;11.52;7.65;;;;;;;;;;686581;28;944;-63
2024/01/31 00:21:45;;;;;;;13.00;7.70;;;;;;;;;;687356;28;865;-63
2024/01/31 00:22:05;;;;;;;14.48;8.05;;;;;;;;;;685818;28;2648;-63
2024/01/31 00:22:26;;;;;;;13.30;7.77;;;;;;;;;;683782;28;4285;-63
2024/01/31 00:22:46;;;;;;;12.38;7.28;;;;;;;;;;684636;28;924;-62
2024/01/31 00:23:07;;;;;;;12.30;7.30;;;;;;;;;;683457;28;1761;-62
2024/01/31 00:23:27;;;;;;;13.85;7.43;;;;;;;;;;681177;28;1207;-63
2024/01/31 00:23:48;;;;;;;12.53;7.50;;;;;;;;;;681829;29;1242;-62
2024/01/31 00:24:11;;;;;;;12.38;7.47;;;;;;;;;;679616;29;870;-62
2024/01/31 00:24:32;;;;;;;12.00;7.60;;;;;;;;;;684183;28;1703;-62
2024/01/31 00:24:52;;;;;;;12.30;7.38;;;;;;;;;;683198;28;2326;-63
2024/01/31 00:25:13;;;;;;;12.57;7.73;;;;;;;;;;684515;28;4264;-63
2024/01/31 00:25:33;;;;;;;12.40;8.20;;;;;;;;;;687324;28;995;-62
2024/01/31 00:25:54;;;;;;;12.50;7.90;;;;;;;;;;688778;28;1017;-62
2024/01/31 00:26:14;;;;;;;12.48;7.82;;;;;;;;;;689334;28;1352;-63
2024/01/31 00:26:34;;;;;;;12.57;7.93;;;;;;;;;;687235;28;829;-64
2024/01/31 00:26:55;;;;;;;13.18;8.07;;;;;;;;;;684721;28;2403;-62
2024/01/31 00:27:15;;;;;;;13.37;8.00;;;;;;;;;;687596;28;928;-63
2024/01/31 00:27:35;;;;;;;13.63;8.20;;;;;;;;;;686772;28;838;-64
2024/01/31 00:27:56;;;;;;;13.33;8.47;;;;;;;;;;686309;28;1031;-65
2024/01/31 00:28:16;;;;;;;13.67;8.23;;;;;;;;;;686545;28;4223;-62
2024/01/31 00:28:36;;;;;;;13.10;8.40;;;;;;;;;;687065;28;1099;-64
2024/01/31 00:28:59;;;;;;;13.20;8.20;;;;;;;;;;685650;28;1772;-63
2024/01/31 00:29:20;;;;;;;15.07;8.45;;;;;;;;;;685196;28;1405;-63
2024/01/31 00:29:40;;;;;;;16.25;8.93;;;;;;;;;;684210;28;1422;-65
2024/01/31 00:30:01;;;;;;;14.63;9.17;;;;;;;;;;682299;28;1839;-62
2024/01/31 00:30:21;;;;;;;13.80;8.32;;;;;;;;;;684845;28;1098;-63
2024/01/31 00:30:44;;;;;;;13.40;8.17;;;;;;;;;;687205;28;841;-64
2024/01/31 00:31:05;;;;;;;13.42;8.28;;;;;;;;;;685358;28;1164;-63
2024/01/31 00:31:25;;;;;;;13.30;7.90;;;;;;;;;;686215;28;4266;-62
2024/01/31 00:31:46;;;;;;;13.43;8.27;;;;;;;;;;685152;28;910;-63
2024/01/31 00:32:06;;;;;;;15.32;8.88;;;;;;;;;;686417;28;2185;-64
2024/01/31 00:32:29;;;;;;;14.18;8.45;;;;;;;;;;687295;28;1251;-62
2024/01/31 00:32:50;;;;;;;14.38;8.68;;;;;;;;;;685099;28;1837;-62
2024/01/31 00:33:10;;;;;;;14.37;8.63;;;;;;;;;;686783;28;1440;-63
2024/01/31 00:33:30;;;;;;;13.75;8.50;;;;;;;;;;687315;28;929;-62
2024/01/31 00:33:51;;;;;;;14.20;8.33;;;;;;;;;;685760;28;2214;-64
2024/01/31 00:34:11;;;;;;;13.50;7.78;;;;;;;;;;685248;28;4445;-63
2024/01/31 00:34:35;;;;;;;13.80;8.07;;;;;;;;;;684699;28;813;-63
2024/01/31 00:34:55;;;;;;;13.80;7.97;;;;;;;;;;683351;28;2384;-64
2024/01/31 00:35:16;;;;;;;13.13;7.83;;;;;;;;;;684311;28;964;-63
2024/01/31 00:35:36;;;;;;;12.25;8.10;;;;;;;;;;684407;28;933;-64
2024/01/31 00:35:57;;;;;;;13.57;8.17;;;;;;;;;;682736;28;1726;-65
2024/01/31 00:36:17;;;;;;;13.02;8.10;;;;;;;;;;681725;29;1212;-63
2024/01/31 00:36:37;;;;;;;13.03;7.80;;;;;;;;;;682284;28;886;-63
2024/01/31 00:36:58;;;;;;;13.50;8.00;;;;;;;;;;684359;28;1443;-63
2024/01/31 00:37:18;;;;;;;14.23;8.57;;;;;;;;;;683427;28;4357;-63
2024/01/31 00:37:39;;;;;;;14.30;8.37;;;;;;;;;;684912;28;904;-63
2024/01/31 00:37:59;;;;;;;12.83;7.97;;;;;;;;;;683718;28;1026;-62
2024/01/31 00:38:20;;;;;;;13.30;8.25;;;;;;;;;;686030;28;850;-62
2024/01/31 00:38:40;;;;;;;14.00;8.40;;;;;;;;;;687643;28;782;-64
2024/01/31 00:39:00;;;;;;;14.97;8.27;;;;;;;;;;683696;28;2623;-63
2024/01/31 00:39:22;;;;;;;12.73;8.03;;;;;;;;;;684846;28;1139;-63
2024/01/31 00:39:46;;;;;;;14.23;8.27;;;;;;;;;;684937;28;1355;-64
2024/01/31 00:40:09;;;;;;;13.38;8.23;;;;;;;;;;683359;28;2509;-63
2024/01/31 00:40:30;;;;;;;11.77;7.95;;;;;;;;;;684725;28;4762;-63
2024/01/31 00:40:50;;;;;;;12.05;7.80;;;;;;;;;;684085;28;2407;-68
2024/01/31 00:41:11;;;;;;;12.50;8.30;;;;;;;;;;684702;28;1971;-62
2024/01/31 00:41:31;;;;;;;14.88;8.73;;;;;;;;;;684646;28;1135;-63
2024/01/31 00:41:51;;;;;;;15.83;8.53;;;;;;;;;;684009;28;1771;-62
2024/01/31 00:42:12;;;;;;;13.95;8.25;;;;;;;;;;685175;28;770;-62
2024/01/31 00:42:33;;;;;;;14.65;8.50;;;;;;;;;;684903;28;832;-64
2024/01/31 00:42:53;;;;;;;13.77;8.23;;;;;;;;;;683862;28;2333;-63
2024/01/31 00:43:14;;;;;;;12.77;8.23;;;;;;;;;;685512;28;4767;-64
2024/01/31 00:43:34;;;;;;;14.53;8.87;;;;;;;;;;687880;28;810;-63
2024/01/31 00:43:54;;;;;;;14.80;8.90;;;;;;;;;;686979;28;1750;-65
2024/01/31 00:44:15;;;;;;;12.50;7.78;;;;;;;;;;687367;28;778;-63
2024/01/31 00:44:35;;;;;;;13.20;8.03;;;;;;;;;;687643;28;778;-63
2024/01/31 00:44:56;;;;;;;13.88;8.20;;;;;;;;;;686970;28;2331;-62
2024/01/31 00:45:16;;;;;;;13.97;8.60;;;;;;;;;;688042;28;818;-63
2024/01/31 00:45:37;;;;;;;12.98;8.25;;;;;;;;;;687509;28;972;-63
2024/01/31 00:45:57;;;;;;;14.40;8.57;;;;;;;;;;687035;28;863;-63
2024/01/31 00:46:18;;;;;;;14.43;8.40;;;;;;;;;;686259;28;4247;-63
2024/01/31 00:46:41;;;;;;;13.87;8.23;;;;;;;;;;687268;28;1341;-64
2024/01/31 00:47:02;;;;;;;13.77;8.00;;;;;;;;;;686451;28;1533;-62
2024/01/31 00:47:23;;;;;;;14.35;8.48;;;;;;;;;;687858;28;786;-64
2024/01/31 00:47:44;;;;;;;13.80;8.52;;;;;;;;;;687437;28;814;-63
2024/01/31 00:48:04;;;;;;;13.33;8.53;;;;;;;;;;686812;28;2354;-64
2024/01/31 00:48:25;;;;;;;14.43;8.90;;;;;;;;;;687171;28;1454;-63
2024/01/31 00:48:45;;;;;;;13.73;8.63;;;;;;;;;;684748;28;1528;-63
2024/01/31 00:49:05;;;;;;;14.73;8.90;;;;;;;;;;684013;28;1109;-62
2024/01/31 00:49:26;;;;;;;13.85;8.68;;;;;;;;;;684398;28;4347;-62
2024/01/31 00:49:47;;;;;;;13.93;8.43;;;;;;;;;;684672;28;1031;-63
2024/01/31 00:50:07;;;;;;;14.00;8.67;;;;;;;;;;683931;28;2580;-61
2024/01/31 00:50:28;;;;;;;14.85;8.75;;;;;;;;;;685142;28;806;-62
2024/01/31 00:50:48;;;;;;;15.43;9.03;;;;;;;;;;687808;28;920;-64
2024/01/31 00:51:10;;;;;;;16.30;9.57;;;;;;;;;;686399;28;2372;-64
2024/01/31 00:51:30;;;;;;;15.50;8.90;;;;;;;;;;688010;28;972;-63
2024/01/31 00:51:51;;;;;;;15.43;9.20;;;;;;;;;;687258;28;1422;-62
2024/01/31 00:52:11;;;;;;;16.87;9.23;;;;;;;;;;687301;28;4373;-62
2024/01/31 00:52:31;;;;;;;14.63;8.75;;;;;;;;;;687226;28;948;-64
2024/01/31 00:52:52;;;;;;;15.50;8.80;;;;;;;;;;686422;28;1833;-63
2024/01/31 00:53:12;;;;;;;16.15;9.18;;;;;;;;;;687871;28;810;-62
2024/01/31 00:53:33;;;;;;;15.73;9.60;;;;;;;;;;685161;28;1306;-63
2024/01/31 00:53:53;;;;;;;13.80;8.73;;;;;;;;;;686265;28;2667;-64
2024/01/31 00:54:14;;;;;;;14.93;9.70;;;;;;;;;;687653;28;1031;-62
2024/01/31 00:54:34;;;;;;;15.50;9.80;;;;;;;;;;684698;28;1238;-62
2024/01/31 00:54:55;;;;;;;15.50;9.33;;;;;;;;;;680022;28;1873;-62
2024/01/31 00:55:15;;;;;;;16.08;9.60;;;;;;;;;;679552;29;4448;-62
2024/01/31 00:55:41;;;;;;;14.47;9.27;;;;;;;;;;682253;29;1166;-64
2024/01/31 00:56:03;;;;;;;14.82;9.10;;;;;;;;;;679905;29;1467;-64
2024/01/31 00:56:24;;;;;;;14.43;9.55;;;;;;;;;;683821;28;757;-62
2024/01/31 00:56:44;;;;;;;14.67;9.23;;;;;;;;;;684674;28;830;-62
2024/01/31 00:57:05;;;;;;;16.45;9.82;;;;;;;;;;683786;28;2225;-64
2024/01/31 00:57:28;;;;;;;15.33;9.30;;;;;;;;;;684708;28;1376;-63
2024/01/31 00:57:49;;;;;;;14.43;9.02;;;;;;;;;;683076;28;1392;-64
2024/01/31 00:58:09;;;;;;;14.73;9.05;;;;;;;;;;681135;28;4277;-64
2024/01/31 00:58:33;;;;;;;14.97;9.40;;;;;;;;;;683591;28;899;-62
2024/01/31 00:58:53;;;;;;;14.20;9.15;;;;;;;;;;678009;29;1142;-63
2024/01/31 00:59:14;;;;;;;14.27;9.20;;;;;;;;;;682361;28;988;-63
2024/01/31 00:59:35;;;;;;;15.52;9.88;;;;;;;;;;684601;28;1368;-65
2024/01/31 00:59:55;;;;;;;14.33;9.57;;;;;;;;;;683158;28;2461;-63
2024/01/31 01:00:15;;;;;;;14.47;8.97;;;;;;;;;;682714;28;1040;-63
2024/01/31 01:00:36;;;;;;;16.50;9.33;;;;;;;;;;683640;28;1268;-63
2024/01/31 01:00:56;;;;;;;17.27;9.88;;;;;;;;;;684611;28;1753;-63
2024/01/31 01:01:16;;;;;;;16.13;9.87;;;;;;;;;;686447;28;4505;-64
2024/01/31 01:01:36;;;;;;;15.13;9.77;;;;;;;;;;688416;28;790;-63
2024/01/31 01:01:57;;;;;;;14.80;9.57;;;;;;;;;;686903;28;1004;-64
2024/01/31 01:02:17;;;;;;;15.03;9.40;;;;;;;;;;687336;28;1023;-64
2024/01/31 01:02:40;;;;;;;15.37;9.40;;;;;;;;;;687530;28;944;-63
2024/01/31 01:03:00;;;;;;;14.90;9.73;;;;;;;;;;684813;28;996;-63
2024/01/31 01:03:20;;;;;;;15.20;10.03;;;;;;;;;;687695;28;882;-63
2024/01/31 01:03:41;;;;;;;15.32;9.75;;;;;;;;;;686895;28;827;-65
2024/01/31 01:04:02;;;;;;;15.57;9.18;;;;;;;;;;686568;28;1191;-62
2024/01/31 01:04:22;;;;;;;15.55;8.88;;;;;;;;;;687117;28;4267;-64
2024/01/31 01:04:43;;;;;;;15.23;9.50;;;;;;;;;;687947;28;945;-64
2024/01/31 01:05:03;;;;;;;15.30;9.83;;;;;;;;;;685373;28;6164;-64
2024/01/31 01:05:24;;;;;;;16.20;10.30;;;;;;;;;;687389;28;3817;-63
2024/01/31 01:05:44;;;;;;;17.42;10.68;;;;;;;;;;687319;28;1441;-62
2024/01/31 01:06:04;;;;;;;15.90;10.23;;;;;;;;;;686074;28;2286;-62
2024/01/31 01:06:25;;;;;;;15.67;10.07;;;;;;;;;;687555;28;917;-63
2024/01/31 01:06:45;;;;;;;16.27;9.88;;;;;;;;;;687330;28;936;-64
2024/01/31 01:07:05;;;;;;;15.17;9.67;;;;;;;;;;686301;28;1847;-62
2024/01/31 01:07:25;;;;;;;15.67;10.23;;;;;;;;;;686975;28;4503;-63
2024/01/31 01:07:46;;;;;;;16.67;10.47;;;;;;;;;;687460;28;889;-64
2024/01/31 01:08:06;;;;;;;16.73;10.27;;;;;;;;;;686491;28;1524;-62
2024/01/31 01:08:27;;;;;;;15.13;9.93;;;;;;;;;;687850;28;921;-64
2024/01/31 01:08:47;;;;;;;15.70;10.00;;;;;;;;;;684658;28;1165;-64
2024/01/31 01:09:07;;;;;;;15.23;9.40;;;;;;;;;;683643;28;1193;-64
2024/01/31 01:09:28;;;;;;;16.02;10.02;;;;;;;;;;684695;28;921;-63
2024/01/31 01:09:48;;;;;;;17.20;10.47;;;;;;;;;;684687;28;854;-63
2024/01/31 01:10:12;;;;;;;17.50;10.83;;;;;;;;;;686263;28;4551;-63
2024/01/31 01:10:32;;;;;;;17.40;10.32;;;;;;;;;;685506;28;882;-64
2024/01/31 01:10:55;;;;;;;15.70;10.17;;;;;;;;;;686080;28;2425;-65
2024/01/31 01:11:15;;;;;;;17.50;10.23;;;;;;;;;;686965;28;1231;-63
2024/01/31 01:11:36;;;;;;;16.17;10.27;;;;;;;;;;687782;28;979;-63
2024/01/31 01:11:56;;;;;;;16.63;10.53;;;;;;;;;;686015;28;2310;-63
2024/01/31 01:12:16;;;;;;;17.55;10.90;;;;;;;;;;687567;28;778;-62
2024/01/31 01:12:37;;;;;;;18.53;10.80;;;;;;;;;;687842;28;1044;-64
2024/01/31 01:12:58;;;;;;;17.73;10.95;;;;;;;;;;686474;28;1584;-64
2024/01/31 01:13:19;;;;;;;16.45;10.82;;;;;;;;;;686893;28;4541;-64
2024/01/31 01:13:39;;;;;;;17.30;10.90;;;;;;;;;;687614;28;893;-64
2024/01/31 01:13:59;;;;;;;16.50;10.70;;;;;;;;;;686636;28;1024;-63
2024/01/31 01:14:19;;;;;;;16.17;10.23;;;;;;;;;;687552;28;1486;-63
2024/01/31 01:14:40;;;;;;;16.98;10.60;;;;;;;;;;687655;28;823;-64
2024/01/31 01:15:00;;;;;;;17.30;10.77;;;;;;;;;;685911;28;2263;-63
2024/01/31 01:15:20;;;;;;;16.43;10.97;;;;;;;;;;687704;28;774;-63
2024/01/31 01:15:40;;;;;;;17.58;10.70;;;;;;;;;;687887;28;980;-63
2024/01/31 01:16:01;;;;;;;17.73;10.70;;;;;;;;;;686115;28;1721;-63
2024/01/31 01:16:21;;;;;;;16.97;10.53;;;;;;;;;;686892;28;4255;-64
2024/01/31 01:16:41;;;;;;;17.13;10.23;;;;;;;;;;687858;28;763;-63
2024/01/31 01:17:02;;;;;;;17.02;10.23;;;;;;;;;;686405;28;1724;-63
2024/01/31 01:17:22;;;;;;;16.80;10.20;;;;;;;;;;687868;28;723;-62
2024/01/31 01:17:42;;;;;;;15.60;9.98;;;;;;;;;;687142;28;1303;-62
2024/01/31 01:18:03;;;;;;;15.37;10.10;;;;;;;;;;686639;28;1850;-64
2024/01/31 01:18:23;;;;;;;14.88;10.05;;;;;;;;;;687890;28;964;-65
2024/01/31 01:18:43;;;;;;;16.20;9.93;;;;;;;;;;687943;28;862;-64
2024/01/31 01:19:04;;;;;;;16.27;10.20;;;;;;;;;;686184;28;2169;-64
2024/01/31 01:19:24;;;;;;;17.52;10.40;;;;;;;;;;687210;28;4497;-63
2024/01/31 01:19:44;;;;;;;17.13;10.10;;;;;;;;;;687587;28;1032;-63
2024/01/31 01:20:06;;;;;;;16.60;10.57;;;;;;;;;;686704;28;1929;-63
2024/01/31 01:20:27;;;;;;;16.50;10.65;;;;;;;;;;687344;28;908;-64
2024/01/31 01:20:47;;;;;;;16.27;10.17;;;;;;;;;;687731;28;993;-63
2024/01/31 01:21:08;;;;;;;17.58;10.68;;;;;;;;;;685577;28;1910;-65
2024/01/31 01:21:28;;;;;;;18.53;10.73;;;;;;;;;;687540;28;1030;-63
2024/01/31 01:21:50;;;;;;;18.17;11.25;;;;;;;;;;686978;28;857;-63
2024/01/31 01:22:10;;;;;;;18.08;11.10;;;;;;;;;;684188;28;4282;-64
2024/01/31 01:22:30;;;;;;;18.58;11.35;;;;;;;;;;684793;28;782;-63
2024/01/31 01:22:51;;;;;;;16.97;10.63;;;;;;;;;;684782;28;1063;-63
2024/01/31 01:23:13;;;;;;;16.87;10.80;;;;;;;;;;682627;28;1191;-64
2024/01/31 01:23:34;;;;;;;16.90;10.70;;;;;;;;;;684709;28;854;-64
2024/01/31 01:23:54;;;;;;;16.90;11.00;;;;;;;;;;683697;28;2480;-65
2024/01/31 01:24:14;;;;;;;17.30;10.70;;;;;;;;;;684485;28;902;-63
2024/01/31 01:24:34;;;;;;;17.13;10.63;;;;;;;;;;684296;28;1124;-63
2024/01/31 01:24:55;;;;;;;17.43;10.63;;;;;;;;;;683857;28;2430;-63
2024/01/31 01:25:15;;;;;;;17.55;11.10;;;;;;;;;;687035;28;4617;-63
2024/01/31 01:25:35;;;;;;;16.83;10.97;;;;;;;;;;687317;28;862;-63
2024/01/31 01:25:55;;;;;;;16.17;10.37;;;;;;;;;;685996;28;1909;-63
2024/01/31 01:26:16;;;;;;;17.55;10.95;;;;;;;;;;687563;28;991;-63
2024/01/31 01:26:39;;;;;;;18.67;11.60;;;;;;;;;;687271;28;917;-63
2024/01/31 01:26:59;;;;;;;16.80;10.63;;;;;;;;;;686120;28;1775;-62
2024/01/31 01:27:20;;;;;;;18.17;10.63;;;;;;;;;;684897;28;885;-64
2024/01/31 01:27:40;;;;;;;18.27;11.13;;;;;;;;;;684341;28;791;-63
2024/01/31 01:28:00;;;;;;;16.50;10.33;;;;;;;;;;683492;28;1852;-62
2024/01/31 01:28:20;;;;;;;16.42;10.20;;;;;;;;;;686343;28;4599;-63
2024/01/31 01:28:43;;;;;;;17.27;10.83;;;;;;;;;;687250;28;937;-63
2024/01/31 01:29:03;;;;;;;18.30;11.05;;;;;;;;;;686636;28;2273;-64
2024/01/31 01:29:24;;;;;;;17.90;11.07;;;;;;;;;;687673;28;830;-64
2024/01/31 01:29:44;;;;;;;18.13;11.17;;;;;;;;;;687149;28;1355;-64
2024/01/31 01:30:05;;;;;;;18.92;11.52;;;;;;;;;;686160;28;2515;-62
2024/01/31 01:30:26;;;;;;;17.45;11.07;;;;;;;;;;687749;28;918;-63
2024/01/31 01:30:46;;;;;;;16.45;10.70;;;;;;;;;;687459;28;968;-62
2024/01/31 01:31:07;;;;;;;17.90;10.97;;;;;;;;;;686671;28;2501;-62
2024/01/31 01:31:28;;;;;;;19.23;11.57;;;;;;;;;;684414;28;4609;-65
2024/01/31 01:31:48;;;;;;;19.42;11.40;;;;;;;;;;685523;28;826;-63
2024/01/31 01:32:08;;;;;;;17.83;11.17;;;;;;;;;;685591;28;1238;-63
2024/01/31 01:32:28;;;;;;;17.50;10.77;;;;;;;;;;685483;28;878;-63
2024/01/31 01:32:49;;;;;;;17.63;10.57;;;;;;;;;;686252;28;898;-63
2024/01/31 01:33:09;;;;;;;17.63;10.77;;;;;;;;;;685311;28;2177;-62
2024/01/31 01:33:29;;;;;;;18.47;10.50;;;;;;;;;;683925;28;1004;-64
2024/01/31 01:33:50;;;;;;;20.00;10.80;;;;;;;;;;687009;28;818;-64
2024/01/31 01:34:11;;;;;;;18.23;10.83;;;;;;;;;;684319;28;4416;-63
2024/01/31 01:34:31;;;;;;;16.48;10.35;;;;;;;;;;686997;28;779;-63
2024/01/31 01:34:51;;;;;;;17.50;10.45;;;;;;;;;;685824;28;998;-64
2024/01/31 01:35:12;;;;;;;18.17;10.63;;;;;;;;;;685491;28;898;-64
2024/01/31 01:35:32;;;;;;;17.47;10.73;;;;;;;;;;686309;28;790;-63
2024/01/31 01:35:52;;;;;;;17.15;11.05;;;;;;;;;;685375;28;837;-64
2024/01/31 01:36:14;;;;;;;17.50;10.93;;;;;;;;;;685589;28;1665;-63
2024/01/31 01:36:34;;;;;;;17.23;10.55;;;;;;;;;;686073;28;1494;-63
2024/01/31 01:36:54;;;;;;;18.07;11.00;;;;;;;;;;686702;28;971;-64
2024/01/31 01:37:15;;;;;;;19.47;11.20;;;;;;;;;;684506;28;4720;-64
2024/01/31 01:37:35;;;;;;;18.83;11.07;;;;;;;;;;687628;28;849;-63
2024/01/31 01:37:55;;;;;;;18.30;11.27;;;;;;;;;;687610;28;869;-63
2024/01/31 01:38:15;;;;;;;18.07;10.77;;;;;;;;;;686812;28;1012;-63
2024/01/31 01:38:36;;;;;;;17.20;10.45;;;;;;;;;;687410;28;953;-64
2024/01/31 01:38:56;;;;;;;17.10;10.53;;;;;;;;;;686613;28;2059;-63
2024/01/31 01:39:17;;;;;;;17.42;10.70;;;;;;;;;;687569;28;1162;-63
2024/01/31 01:39:39;;;;;;;28.60;14.17;;;;;;;;;;687878;28;873;-63
2024/01/31 01:39:59;;;;;;;17.60;12.25;;;;;;;;;;686156;28;1383;-63
2024/01/31 01:40:19;;;;;;;16.83;11.10;;;;;;;;;;686628;28;4369;-62
2024/01/31 01:40:43;;;;;;;17.30;11.60;;;;;;;;;;687552;28;798;-64
2024/01/31 01:41:06;;;;;;;19.13;11.90;;;;;;;;;;686149;28;1190;-64
2024/01/31 01:41:26;;;;;;;18.17;10.68;;;;;;;;;;686532;28;1922;-62
2024/01/31 01:41:50;;;;;;;17.80;11.03;;;;;;;;;;687606;28;882;-63
2024/01/31 01:42:10;;;;;;;18.75;11.10;;;;;;;;;;686318;28;1187;-63
2024/01/31 01:42:31;;;;;;;17.67;10.67;;;;;;;;;;686908;28;761;-63
2024/01/31 01:42:51;;;;;;;17.98;10.82;;;;;;;;;;687488;28;908;-63
2024/01/31 01:43:18;;;;;;;18.10;11.13;;;;;;;;;;685826;28;4418;-64
2024/01/31 01:43:39;;;;;;;17.50;10.95;;;;;;;;;;687684;28;932;-64
2024/01/31 01:44:00;;;;;;;18.48;11.30;;;;;;;;;;684595;28;989;-64
2024/01/31 01:44:20;;;;;;;17.83;10.50;;;;;;;;;;687438;28;830;-63
2024/01/31 01:44:47;;;;;;;18.13;10.17;;;;;;;;;;687168;28;814;-63
2024/01/31 01:45:07;;;;;;;19.48;11.25;;;;;;;;;;686256;28;920;-63
2024/01/31 01:45:29;;;;;;;16.67;10.67;;;;;;;;;;686981;28;802;-63
2024/01/31 01:45:52;;;;;;;17.27;10.55;;;;;;;;;;687620;28;1074;-63
2024/01/31 01:46:15;;;;;;;19.08;11.35;;;;;;;;;;686128;28;4385;-64
2024/01/31 01:46:36;;;;;;;17.83;10.95;;;;;;;;;;687128;28;1299;-64
2024/01/31 01:46:56;;;;;;;18.57;11.20;;;;;;;;;;688732;28;1267;-66
2024/01/31 01:47:17;;;;;;;18.20;11.18;;;;;;;;;;690393;28;817;-63
2024/01/31 01:47:39;;;;;;;20.00;11.30;;;;;;;;;;687269;28;877;-63
2024/01/31 01:47:59;;;;;;;18.73;10.82;;;;;;;;;;686340;28;1020;-62
2024/01/31 01:48:20;;;;;;;17.87;10.90;;;;;;;;;;687324;28;1236;-63
2024/01/31 01:48:41;;;;;;;18.13;11.20;;;;;;;;;;687226;28;806;-64
2024/01/31 01:49:01;;;;;;;18.23;10.98;;;;;;;;;;686272;28;1072;-63
2024/01/31 01:49:21;;;;;;;18.95;11.25;;;;;;;;;;686856;28;4403;-63
2024/01/31 01:49:42;;;;;;;17.70;11.23;;;;;;;;;;687059;28;976;-63
2024/01/31 01:50:03;;;;;;;17.55;11.48;;;;;;;;;;687929;28;1410;-64
2024/01/31 01:50:24;;;;;;;18.27;11.63;;;;;;;;;;688209;28;939;-62
2024/01/31 01:50:45;;;;;;;18.98;11.50;;;;;;;;;;686984;28;988;-63
2024/01/31 01:51:05;;;;;;;19.00;11.68;;;;;;;;;;687016;28;964;-63
2024/01/31 01:51:26;;;;;;;18.45;11.75;;;;;;;;;;689282;28;770;-64
2024/01/31 01:51:47;;;;;;;18.53;11.70;;;;;;;;;;687544;28;1321;-63
2024/01/31 01:52:08;;;;;;;18.73;11.30;;;;;;;;;;686374;28;4289;-64
2024/01/31 01:52:29;;;;;;;18.30;11.32;;;;;;;;;;688780;28;877;-63
2024/01/31 01:52:49;;;;;;;18.95;11.45;;;;;;;;;;687377;28;980;-62
2024/01/31 01:53:10;;;;;;;19.35;11.73;;;;;;;;;;686687;28;1108;-63
2024/01/31 01:53:31;;;;;;;17.98;11.60;;;;;;;;;;688966;28;1258;-63
2024/01/31 01:53:52;;;;;;;19.55;11.73;;;;;;;;;;687551;28;972;-62
2024/01/31 01:54:13;;;;;;;18.93;11.47;;;;;;;;;;686624;28;1210;-65
2024/01/31 01:54:34;;;;;;;17.10;10.95;;;;;;;;;;687759;28;912;-65
2024/01/31 01:54:54;;;;;;;18.05;11.38;;;;;;;;;;687210;28;975;-65
2024/01/31 01:55:15;;;;;;;20.17;11.90;;;;;;;;;;685668;28;4579;-62
2024/01/31 01:55:35;;;;;;;19.60;12.00;;;;;;;;;;686335;28;952;-62
2024/01/31 01:55:55;;;;;;;19.97;12.10;;;;;;;;;;689744;28;1119;-65
2024/01/31 01:56:16;;;;;;;20.33;12.17;;;;;;;;;;688987;28;1241;-63
2024/01/31 01:56:36;;;;;;;20.55;12.13;;;;;;;;;;689725;28;959;-64
2024/01/31 01:56:57;;;;;;;18.87;12.07;;;;;;;;;;689838;28;873;-65
2024/01/31 01:57:18;;;;;;;18.58;11.52;;;;;;;;;;688862;28;1228;-62
2024/01/31 01:57:38;;;;;;;18.02;11.77;;;;;;;;;;690033;28;984;-63
2024/01/31 01:57:58;;;;;;;18.57;11.37;;;;;;;;;;686280;28;986;-65
2024/01/31 01:58:19;;;;;;;20.55;12.13;;;;;;;;;;686911;28;4393;-64
2024/01/31 01:58:40;;;;;;;20.30;12.03;;;;;;;;;;687487;28;850;-63
2024/01/31 01:59:00;;;;;;;19.70;11.80;;;;;;;;;;685427;28;1026;-62
2024/01/31 01:59:21;;;;;;;19.67;11.53;;;;;;;;;;687097;28;1022;-63
2024/01/31 01:59:42;;;;;;;21.20;11.30;;;;;;;;;;687619;28;904;-64
2024/01/31 02:00:04;;;;;;;19.75;11.45;;;;;;;;;;686177;28;1421;-64
2024/01/31 02:00:25;;;;;;;17.98;11.68;;;;;;;;;;687053;28;734;-65
2024/01/31 02:00:46;;;;;;;19.60;11.75;;;;;;;;;;687042;28;1087;-62
2024/01/31 02:01:07;;;;;;;21.05;12.02;;;;;;;;;;685702;28;1244;-64
2024/01/31 02:01:27;;;;;;;20.45;12.38;;;;;;;;;;685141;28;4545;-65
2024/01/31 02:01:48;;;;;;;18.77;11.57;;;;;;;;;;687372;28;4611;-62
2024/01/31 02:02:08;;;;;;;20.27;11.88;;;;;;;;;;685898;28;2548;-64
2024/01/31 02:02:29;;;;;;;19.13;11.87;;;;;;;;;;687240;28;1072;-64
2024/01/31 02:02:50;;;;;;;19.00;11.57;;;;;;;;;;687501;28;942;-63
2024/01/31 02:03:11;;;;;;;19.15;11.23;;;;;;;;;;682759;28;1388;-64
2024/01/31 02:03:31;;;;;;;18.67;11.38;;;;;;;;;;680164;29;997;-64
2024/01/31 02:03:54;;;;;;;19.02;11.35;;;;;;;;;;680787;28;882;-63
2024/01/31 02:04:16;;;;;;;20.35;11.65;;;;;;;;;;682634;28;4391;-62
2024/01/31 02:04:37;;;;;;;20.67;12.65;;;;;;;;;;684767;28;936;-64
2024/01/31 02:04:58;;;;;;;21.27;12.77;;;;;;;;;;685333;28;837;-64
2024/01/31 02:05:18;;;;;;;20.42;12.65;;;;;;;;;;686499;28;894;-64
2024/01/31 02:05:39;;;;;;;21.10;12.80;;;;;;;;;;687503;28;958;-62
2024/01/31 02:05:59;;;;;;;20.95;12.82;;;;;;;;;;686497;28;2540;-64
2024/01/31 02:06:20;;;;;;;20.03;11.73;;;;;;;;;;687511;28;857;-64